Time;durP1;ratioP1;P1;durP2;ratioP2;P2;SDS_P1;SDS_P2;PMS_P1;PMS_P2;Temp;Humidity;BMP_temperature;BMP_pressure;BME280_temperature;BME280_humidity;BME280_pressure;Samples;Min_cycle;Max_cycle;Signal;HPM_P1;HPM_P2
2023/03/13 04:53:42;;;;;;;9.13;5.55;;;;;;;4.18;78.97;100616.72;5365413;28;20000;-85
2023/03/13 04:56:46;;;;;;;10.57;5.70;;;;;;;4.13;79.11;100616.28;5266946;33;33983;-85
2023/03/13 04:59:49;;;;;;;10.45;6.32;;;;;;;4.13;80.04;100620.78;5281157;33;34377;-84
2023/03/13 05:02:52;;;;;;;10.85;6.47;;;;;;;4.21;77.72;100631.59;5278062;33;34834;-84
2023/03/13 05:05:55;;;;;;;12.88;6.65;;;;;;;4.13;78.44;100640.25;5290858;33;34448;-84
2023/03/13 05:09:00;;;;;;;10.35;6.18;;;;;;;4.19;78.38;100628.25;5276841;33;34606;-85
2023/03/13 05:12:03;;;;;;;10.40;5.87;;;;;;;4.14;80.03;100643.78;5306012;33;35341;-88
2023/03/13 05:15:13;;;;;;;8.65;5.40;;;;;;;4.20;79.38;100653.91;5279178;33;34376;-85
2023/03/13 05:18:16;;;;;;;9.18;6.07;;;;;;;4.27;77.74;100649.72;5268815;33;33579;-86
2023/03/13 05:21:19;;;;;;;12.43;5.93;;;;;;;4.23;77.81;100662.47;5295207;33;35251;-85
2023/03/13 05:24:23;;;;;;;9.23;5.85;;;;;;;4.24;78.03;100642.88;5296904;33;35443;-85
2023/03/13 05:27:27;;;;;;;9.30;6.05;;;;;;;4.19;78.64;100644.22;5291159;33;34074;-85
2023/03/13 05:30:36;;;;;;;10.38;5.93;;;;;;;4.27;77.79;100650.59;5278825;33;33722;-84
2023/03/13 05:33:39;;;;;;;11.45;6.22;;;;;;;4.24;77.30;100653.53;5278386;33;33933;-85
2023/03/13 05:36:42;;;;;;;14.48;7.22;;;;;;;4.24;78.37;100656.19;5278353;33;34504;-85
2023/03/13 05:39:46;;;;;;;12.70;6.25;;;;;;;4.29;78.25;100656.63;5291017;33;34709;-84
2023/03/13 05:42:49;;;;;;;12.25;6.65;;;;;;;4.26;79.24;100656.88;5266227;33;33866;-85
2023/03/13 05:45:52;;;;;;;12.93;7.22;;;;;;;4.27;80.01;100657.72;5266377;33;33245;-85
2023/03/13 05:48:55;;;;;;;14.75;7.70;;;;;;;4.25;81.00;100662.38;5277975;33;33984;-85
2023/03/13 05:52:00;;;;;;;10.48;6.70;;;;;;;4.32;79.99;100653.69;5277823;33;34012;-85
2023/03/13 05:55:03;;;;;;;12.05;7.18;;;;;;;4.23;80.58;100656.31;5264513;33;34632;-84
2023/03/13 05:58:07;;;;;;;16.58;7.75;;;;;;;4.30;80.58;100655.66;5273164;33;33991;-85
2023/03/13 06:01:14;;;;;;;14.40;7.68;;;;;;;4.42;78.34;100645.78;5273086;33;34726;-84
2023/03/13 06:04:18;;;;;;;14.02;7.20;;;;;;;4.41;78.65;100652.06;5273668;33;33900;-85
2023/03/13 06:07:21;;;;;;;11.63;6.97;;;;;;;4.43;78.95;100651.94;5249034;33;34752;-85
2023/03/13 06:10:24;;;;;;;9.40;7.45;;;;;;;4.42;79.41;100650.28;5273154;33;34770;-85
2023/03/13 06:13:28;;;;;;;11.48;6.93;;;;;;;4.50;79.63;100647.78;5260585;33;34093;-85
2023/03/13 06:16:32;;;;;;;13.25;7.90;;;;;;;4.53;79.30;100645.72;5260268;33;33722;-84
2023/03/13 06:19:36;;;;;;;16.52;6.78;;;;;;;4.56;79.08;100641.91;5274113;33;33791;-84
2023/03/13 06:22:40;;;;;;;12.48;6.82;;;;;;;4.55;80.63;100645.56;5259906;33;35425;-84
2023/03/13 06:25:46;;;;;;;14.43;6.90;;;;;;;4.55;77.80;100646.41;5273005;33;33907;-84
2023/03/13 06:28:49;;;;;;;12.82;7.05;;;;;;;4.66;76.42;100642.81;5273022;33;34096;-84
2023/03/13 06:31:52;;;;;;;11.57;6.55;;;;;;;4.71;75.59;100639.72;5271967;33;34102;-84
2023/03/13 06:34:56;;;;;;;17.40;7.75;;;;;;;4.66;76.39;100642.81;5260048;33;34685;-84
2023/03/13 06:37:58;;;;;;;12.40;6.95;;;;;;;4.75;76.44;100639.34;5249046;33;33903;-85
2023/03/13 06:41:01;;;;;;;19.02;7.15;;;;;;;4.84;76.65;100644.84;5261298;33;34464;-84
2023/03/13 06:44:04;;;;;;;14.30;7.10;;;;;;;5.07;74.52;100648.19;5272562;33;34092;-85
2023/03/13 06:47:07;;;;;;;11.07;7.15;;;;;;;5.15;75.53;100653.69;5260976;33;35121;-84
2023/03/13 06:50:10;;;;;;;12.30;6.85;;;;;;;5.29;75.26;100652.44;5260769;33;34381;-84
2023/03/13 06:53:17;;;;;;;12.73;7.37;;;;;;;5.48;73.01;100659.66;5249295;33;35642;-84
2023/03/13 06:56:20;;;;;;;10.48;6.68;;;;;;;5.38;73.51;100659.62;5271649;33;34428;-84
2023/03/13 06:59:23;;;;;;;13.05;7.20;;;;;;;5.31;72.66;100651.31;5242348;33;33837;-84
2023/03/13 07:02:26;;;;;;;10.77;6.18;;;;;;;5.33;73.01;100654.72;5262166;33;34615;-84
2023/03/13 07:05:31;;;;;;;11.88;7.15;;;;;;;5.36;72.82;100645.59;5256227;33;35035;-84
2023/03/13 07:08:34;;;;;;;10.75;6.70;;;;;;;5.57;70.30;100653.47;5249729;33;34180;-86
2023/03/13 07:11:38;;;;;;;10.50;6.55;;;;;;;5.60;70.10;100653.19;5276644;33;32672;-86
2023/03/13 07:14:40;;;;;;;11.23;6.30;;;;;;;5.64;70.40;100643.91;5274991;33;35397;-88
2023/03/13 07:17:43;;;;;;;11.63;6.45;;;;;;;5.77;67.45;100647.16;5276905;33;35249;-88
2023/03/13 07:20:54;;;;;;;14.65;6.95;;;;;;;5.88;68.50;100647.03;5270051;33;34469;-84
2023/03/13 07:23:57;;;;;;;16.42;6.12;;;;;;;5.97;66.81;100648.06;5284589;33;34471;-84
2023/03/13 07:27:00;;;;;;;13.20;6.32;;;;;;;6.00;66.76;100642.41;5289623;33;34291;-84
2023/03/13 07:30:10;;;;;;;10.88;6.43;;;;;;;6.26;64.65;100631.09;5267638;33;34088;-85
2023/03/13 07:33:13;;;;;;;16.23;7.03;;;;;;;6.21;65.63;100641.41;5286897;33;33941;-85
2023/03/13 07:36:16;;;;;;;9.27;5.93;;;;;;;6.41;64.03;100635.03;5288593;33;34337;-85
2023/03/13 07:39:19;;;;;;;10.48;5.87;;;;;;;6.44;62.49;100629.41;5277921;33;35335;-85
2023/03/13 07:42:22;;;;;;;12.88;6.80;;;;;;;6.52;61.52;100625.97;5272528;33;34274;-84
2023/03/13 07:45:26;;;;;;;9.95;5.93;;;;;;;6.51;62.92;100624.31;5273442;33;33974;-84
2023/03/13 07:48:32;;;;;;;10.68;6.00;;;;;;;6.68;61.60;100618.19;5262398;33;34007;-84
2023/03/13 07:51:35;;;;;;;10.32;5.60;;;;;;;6.98;60.39;100616.22;5272840;33;33757;-84
2023/03/13 07:54:46;;;;;;;23.15;6.37;;;;;;;7.03;59.76;100613.97;5262262;33;33842;-84
2023/03/13 07:57:48;;;;;;;11.60;6.53;;;;;;;7.22;59.31;100604.94;5277581;33;33692;-84
2023/03/13 08:00:52;;;;;;;11.10;6.18;;;;;;;7.43;58.32;100610.03;5264185;33;34058;-84
2023/03/13 08:03:55;;;;;;;10.30;6.00;;;;;;;7.20;57.80;100609.63;5262071;33;33657;-85
2023/03/13 08:06:58;;;;;;;9.20;5.80;;;;;;;7.27;58.25;100605.34;5260393;33;34444;-85
2023/03/13 08:10:01;;;;;;;8.90;5.57;;;;;;;7.49;57.91;100583.50;5258501;33;34099;-85
2023/03/13 08:13:04;;;;;;;11.30;5.35;;;;;;;7.66;56.60;100588.97;5267344;33;35337;-85
2023/03/13 08:16:13;;;;;;;9.63;5.53;;;;;;;7.78;55.41;100590.47;5264882;33;35244;-85
2023/03/13 08:19:16;;;;;;;9.00;5.68;;;;;;;7.93;56.00;100578.19;5271947;33;35393;-84
2023/03/13 08:22:19;;;;;;;8.80;5.40;;;;;;;7.93;54.10;100577.34;5247581;33;35387;-84
2023/03/13 08:25:22;;;;;;;11.35;6.00;;;;;;;7.90;53.66;100565.09;5258345;33;34176;-85
2023/03/13 08:28:25;;;;;;;11.52;6.35;;;;;;;7.93;55.23;100563.94;5263132;33;33624;-85
2023/03/13 08:31:37;;;;;;;10.05;5.65;;;;;;;8.23;54.18;100573.34;5262792;33;34854;-85
2023/03/13 08:34:40;;;;;;;9.82;5.57;;;;;;;8.53;54.12;100565.84;5274622;33;33667;-85
2023/03/13 08:37:43;;;;;;;10.60;5.82;;;;;;;8.67;50.47;100562.56;5265844;33;34656;-85
2023/03/13 08:40:46;;;;;;;12.27;6.65;;;;;;;8.68;51.59;100555.34;5257996;33;34750;-83
2023/03/13 08:43:52;;;;;;;10.00;6.22;;;;;;;8.70;50.89;100554.19;5273585;33;35884;-84
2023/03/13 08:46:56;;;;;;;9.90;6.47;;;;;;;8.43;51.37;100557.09;5276778;33;34149;-84
2023/03/13 08:49:59;;;;;;;13.85;6.47;;;;;;;8.39;52.13;100560.09;5275467;33;35286;-84
2023/03/13 08:53:02;;;;;;;12.40;7.15;;;;;;;8.66;53.27;100547.47;5294163;33;35425;-83
2023/03/13 08:56:07;;;;;;;12.93;6.97;;;;;;;8.90;50.85;100540.50;5278926;33;34204;-83
2023/03/13 08:59:11;;;;;;;10.75;6.80;;;;;;;8.89;50.84;100545.00;5259944;33;35083;-90
2023/03/13 09:02:18;;;;;;;10.73;6.53;;;;;;;8.99;50.59;100545.72;5265694;33;34184;-88
2023/03/13 09:05:21;;;;;;;13.30;7.00;;;;;;;8.91;51.26;100544.88;5282508;33;33973;-87
2023/03/13 09:08:25;;;;;;;10.90;6.05;;;;;;;9.14;50.58;100547.78;5249112;33;34085;-85
2023/03/13 09:11:28;;;;;;;12.13;6.45;;;;;;;9.35;49.71;100540.09;5269407;33;33936;-84
2023/03/13 09:14:31;;;;;;;10.43;7.00;;;;;;;9.30;50.85;100531.69;5278100;33;33660;-85
2023/03/13 09:17:36;;;;;;;10.45;6.25;;;;;;;9.57;47.64;100533.25;5264498;33;34083;-88
2023/03/13 09:20:42;;;;;;;11.00;6.60;;;;;;;9.36;48.53;100532.88;5273190;33;34562;-85
2023/03/13 09:23:46;;;;;;;9.80;6.37;;;;;;;9.53;49.53;100523.81;5262834;33;33642;-85
2023/03/13 09:26:49;;;;;;;9.80;6.22;;;;;;;9.86;47.97;100521.13;5261378;33;34138;-86
2023/03/13 09:30:03;;;;;;;10.60;6.55;;;;;;;10.01;47.02;100515.91;5261505;33;33837;-85
2023/03/13 09:33:06;;;;;;;12.52;7.43;;;;;;;9.78;47.25;100513.91;5265945;33;35274;-85
2023/03/13 09:36:10;;;;;;;11.35;6.28;;;;;;;9.84;46.47;100509.69;5262039;33;33551;-85
2023/03/13 09:39:13;;;;;;;12.13;6.45;;;;;;;9.85;46.76;100514.06;5261401;33;33999;-85
2023/03/13 09:42:21;;;;;;;12.37;6.05;;;;;;;10.06;46.40;100505.44;5259534;33;33990;-85
2023/03/13 09:45:42;;;;;;;13.05;6.72;;;;;;;10.27;46.64;100504.94;5273413;33;33978;-85
2023/03/13 09:48:51;;;;;;;12.30;6.43;;;;;;;10.95;46.83;100496.22;5269789;33;33897;-85
2023/03/13 09:52:13;;;;;;;12.88;6.57;;;;;;;11.18;43.78;100496.25;5271381;33;33880;-85
2023/03/13 09:55:21;;;;;;;9.70;6.50;;;;;;;11.27;43.12;100491.66;5280317;33;35343;-85
2023/03/13 09:58:27;;;;;;;14.02;6.20;;;;;;;11.19;45.27;100502.47;5288354;33;35454;-85
2023/03/13 10:01:34;;;;;;;9.55;6.10;;;;;;;11.11;44.80;100487.19;5261726;33;34089;-85
2023/03/13 10:04:45;;;;;;;10.20;6.03;;;;;;;11.37;44.30;100486.00;5278912;33;34725;-85
2023/03/13 10:07:48;;;;;;;12.50;5.97;;;;;;;11.64;44.70;100468.41;5279545;33;34995;-86
2023/03/13 10:11:11;;;;;;;13.32;6.35;;;;;;;11.70;44.96;100460.44;5262713;33;34515;-86
2023/03/13 10:14:38;;;;;;;8.90;5.78;;;;;;;11.83;45.45;100473.31;5272444;33;32516;-86
2023/03/13 10:17:41;;;;;;;9.02;5.70;;;;;;;12.06;42.84;100456.25;5273096;33;34590;-86
2023/03/13 10:20:50;;;;;;;10.25;6.05;;;;;;;12.09;43.48;100459.41;5260572;33;33554;-86
2023/03/13 10:24:16;;;;;;;12.02;6.20;;;;;;;12.20;43.22;100456.25;5269324;33;34453;-85
2023/03/13 10:27:18;;;;;;;12.13;5.97;;;;;;;12.44;43.67;100446.16;5273152;33;34038;-86
2023/03/13 10:30:28;;;;;;;10.52;5.55;;;;;;;12.41;42.07;100455.47;5249531;33;35204;-85
2023/03/13 10:33:31;;;;;;;8.52;5.35;;;;;;;12.62;41.36;100440.34;5272907;33;34502;-85
2023/03/13 10:36:48;;;;;;;9.90;5.80;;;;;;;12.74;42.21;100446.94;5259764;33;34825;-85
2023/03/13 10:40:10;;;;;;;9.60;5.55;;;;;;;12.90;42.00;100440.47;5256785;33;34643;-86
2023/03/13 10:43:19;;;;;;;10.07;5.82;;;;;;;13.01;42.33;100431.00;5272476;33;33681;-86
2023/03/13 10:46:26;;;;;;;9.25;5.45;;;;;;;13.04;40.52;100447.66;5271505;33;33948;-86
2023/03/13 10:49:31;;;;;;;10.35;5.90;;;;;;;13.04;41.34;100434.16;5272407;33;34215;-86
2023/03/13 10:52:45;;;;;;;8.63;5.82;;;;;;;13.24;42.32;100436.22;5259703;33;34122;-85
2023/03/13 10:55:50;;;;;;;10.23;5.55;;;;;;;13.37;39.97;100426.41;5273167;33;34539;-90
2023/03/13 10:58:54;;;;;;;10.32;5.78;;;;;;;13.47;39.76;100414.41;5261064;33;34031;-91
2023/03/13 11:02:00;;;;;;;8.15;5.43;;;;;;;13.51;40.37;100419.25;5280620;33;34166;-89
2023/03/13 11:05:21;;;;;;;8.98;6.10;;;;;;;13.73;39.07;100413.78;5292562;33;36690;-87
2023/03/13 11:08:35;;;;;;;10.68;6.20;;;;;;;13.60;38.55;100407.25;5282241;33;34691;-86
2023/03/13 11:11:46;;;;;;;9.82;6.43;;;;;;;13.19;39.25;100400.81;5272806;33;34801;-86
2023/03/13 11:14:56;;;;;;;10.65;5.75;;;;;;;13.62;40.37;100391.62;5272877;33;33550;-85
2023/03/13 11:18:12;;;;;;;10.18;5.75;;;;;;;14.12;37.92;100391.50;5278460;33;34487;-86
2023/03/13 11:21:59;;;;;;;9.50;6.37;;;;;;;14.33;38.07;100395.97;5270645;33;34049;-86
2023/03/13 11:25:19;;;;;;;11.82;5.97;;;;;;;14.57;38.63;100391.97;5259175;33;34135;-85
2023/03/13 11:28:41;;;;;;;12.35;5.97;;;;;;;14.72;37.35;100387.19;5273123;33;34163;-85
2023/03/13 11:31:57;;;;;;;10.30;5.97;;;;;;;15.18;37.12;100386.44;5271019;33;33728;-90
2023/03/13 11:35:06;;;;;;;9.73;6.05;;;;;;;15.74;36.74;100366.19;5275588;33;34595;-86
2023/03/13 11:38:21;;;;;;;9.20;5.95;;;;;;;16.35;35.44;100369.53;5267026;33;33508;-86
2023/03/13 11:41:44;;;;;;;9.63;5.45;;;;;;;16.85;34.54;100350.66;5269398;33;34950;-85
2023/03/13 11:44:53;;;;;;;14.87;5.72;;;;;;;17.67;33.34;100337.84;5271883;33;34003;-86
2023/03/13 11:48:08;;;;;;;9.85;5.72;;;;;;;17.88;32.45;100329.25;5270813;33;33702;-86
2023/03/13 11:51:23;;;;;;;10.95;6.12;;;;;;;17.44;32.59;100333.84;5270920;33;33912;-86
2023/03/13 11:54:32;;;;;;;10.65;6.12;;;;;;;18.73;30.59;100331.09;5270701;33;33883;-86
2023/03/13 11:57:49;;;;;;;12.00;5.50;;;;;;;19.64;30.45;100328.94;5271631;33;34175;-86
2023/03/13 12:01:17;;;;;;;11.27;5.03;;;;;;;20.01;28.85;100320.47;5270554;33;33873;-86
2023/03/13 12:04:32;;;;;;;10.90;5.90;;;;;;;19.11;29.42;100290.84;5270666;33;34709;-86
2023/03/13 12:07:41;;;;;;;14.87;5.30;;;;;;;20.20;29.01;100295.69;5268628;33;33952;-91
2023/03/13 12:10:57;;;;;;;;;;;;;;;20.90;28.14;100292.62;5268092;33;34119;-87
2023/03/13 12:14:04;;;;;;;8.30;4.78;;;;;;;19.70;28.22;100284.28;5268785;33;34154;-86
2023/03/13 12:17:46;;;;;;;8.68;5.32;;;;;;;19.40;29.34;100291.78;5269571;33;34737;-86
2023/03/13 12:21:11;;;;;;;11.00;5.32;;;;;;;20.94;27.66;100277.37;5275625;33;33947;-87
2023/03/13 12:24:47;;;;;;;8.85;4.90;;;;;;;22.19;27.05;100266.78;5293396;33;34226;-86
2023/03/13 12:28:10;;;;;;;7.85;4.68;;;;;;;24.39;23.92;100256.44;5250084;33;33899;-86
2023/03/13 12:31:25;;;;;;;6.97;4.70;;;;;;;26.00;22.37;100261.25;5272132;33;35337;-86
2023/03/13 12:34:55;;;;;;;7.07;4.65;;;;;;;25.97;22.17;100256.31;5271063;33;33649;-91
2023/03/13 12:38:39;;;;;;;8.18;4.25;;;;;;;27.10;20.67;100247.22;5285451;33;34829;-87
2023/03/13 12:41:46;;;;;;;7.00;4.25;;;;;;;27.19;20.73;100239.97;5276235;33;36926;-87
2023/03/13 12:44:49;;;;;;;6.22;4.75;;;;;;;27.28;19.99;100229.12;5245497;33;34023;-87
2023/03/13 12:48:17;;;;;;;5.90;4.62;;;;;;;26.19;21.58;100227.50;5259502;33;34656;-85
2023/03/13 12:51:32;;;;;;;6.85;4.30;;;;;;;26.55;20.79;100218.97;5254892;33;34149;-85
2023/03/13 12:55:05;;;;;;;6.05;4.30;;;;;;;25.97;21.67;100198.38;5271763;33;34266;-85
2023/03/13 12:58:24;;;;;;;7.20;4.47;;;;;;;24.73;22.49;100187.13;5243445;33;33755;-87
2023/03/13 13:01:40;;;;;;;6.65;4.03;;;;;;;25.72;22.53;100179.16;5244055;33;34440;-87
2023/03/13 13:04:46;;;;;;;9.10;4.20;;;;;;;27.25;20.35;100174.41;5255795;33;33997;-86
2023/03/13 13:07:58;;;;;;;9.23;3.97;;;;;;;26.36;21.03;100175.47;5259323;33;33885;-87
2023/03/13 13:11:33;;;;;;;7.60;3.72;;;;;;;27.32;20.48;100166.56;5270772;33;34023;-86
2023/03/13 13:14:56;;;;;;;6.18;3.70;;;;;;;28.63;19.12;100165.00;5275355;33;33949;-86
2023/03/13 13:18:14;;;;;;;6.62;4.37;;;;;;;27.40;20.42;100174.22;5277528;33;35052;-87
2023/03/13 13:21:28;;;;;;;7.67;4.33;;;;;;;24.25;22.77;100187.38;5273119;33;33777;-86
2023/03/13 13:24:52;;;;;;;9.00;4.22;;;;;;;20.25;27.91;100194.66;5259831;33;33763;-86
2023/03/13 13:27:55;;;;;;;6.95;4.00;;;;;;;19.65;29.73;100183.13;5262318;33;34023;-86
2023/03/13 13:31:10;;;;;;;7.22;3.92;;;;;;;19.41;29.81;100178.78;5260164;33;33888;-86
2023/03/13 13:34:29;;;;;;;5.50;3.83;;;;;;;19.21;30.12;100168.25;5270750;33;34302;-90
2023/03/13 13:37:32;;;;;;;7.00;4.15;;;;;;;22.30;26.27;100151.72;5269056;33;34416;-86
2023/03/13 13:40:36;;;;;;;9.68;3.58;;;;;;;24.01;24.72;100140.28;5277856;33;35212;-86
2023/03/13 13:43:46;;;;;;;6.00;3.37;;;;;;;23.13;25.31;100141.06;5277791;33;34283;-86
2023/03/13 13:46:49;;;;;;;4.95;3.00;;;;;;;22.71;25.86;100135.59;5273895;33;35168;-86
2023/03/13 13:49:59;;;;;;;6.10;2.80;;;;;;;20.83;28.15;100131.34;5272732;33;34648;-86
2023/03/13 13:53:32;;;;;;;5.55;3.28;;;;;;;19.45;30.28;100128.91;5288750;33;34014;-86
2023/03/13 13:56:45;;;;;;;6.47;3.12;;;;;;;18.44;32.69;100127.47;5274970;33;34254;-85
2023/03/13 13:59:59;;;;;;;4.43;2.70;;;;;;;17.72;33.25;100116.59;5277541;33;33926;-85
2023/03/13 14:03:17;;;;;;;5.72;2.87;;;;;;;18.04;33.37;100103.56;5276347;33;34417;-86
2023/03/13 14:06:29;;;;;;;4.28;3.40;;;;;;;18.26;32.73;100095.69;5272591;33;34014;-86
2023/03/13 14:09:42;;;;;;;4.90;3.08;;;;;;;18.29;33.00;100109.66;5253814;33;33689;-86
2023/03/13 14:12:57;;;;;;;4.65;2.97;;;;;;;17.62;33.58;100112.53;5259749;33;34213;-85
2023/03/13 14:16:23;;;;;;;8.80;2.95;;;;;;;17.28;35.81;100114.03;5274495;33;33925;-86
2023/03/13 14:19:42;;;;;;;7.70;3.25;;;;;;;17.53;35.71;100115.81;5249725;33;34749;-86
2023/03/13 14:22:47;;;;;;;4.55;2.83;;;;;;;17.20;35.42;100108.91;5271926;33;33987;-86
2023/03/13 14:25:50;;;;;;;4.00;3.05;;;;;;;16.68;35.77;100120.09;5271718;33;34446;-85
2023/03/13 14:28:59;;;;;;;5.05;2.85;;;;;;;16.63;35.83;100119.13;5249055;33;34738;-85
2023/03/13 14:32:03;;;;;;;7.12;2.90;;;;;;;16.56;36.89;100116.47;5264927;33;34338;-85
2023/03/13 14:35:08;;;;;;;3.90;1.98;;;;;;;16.69;36.53;100115.50;5257497;33;34322;-83
2023/03/13 14:38:29;;;;;;;4.40;2.35;;;;;;;16.43;37.12;100111.13;5258264;33;34291;-84
2023/03/13 14:41:39;;;;;;;4.32;2.40;;;;;;;16.43;38.04;100119.28;5260799;33;33645;-83
2023/03/13 14:44:45;;;;;;;3.12;2.72;;;;;;;16.16;37.72;100116.78;5270446;33;34292;-83
2023/03/13 14:47:50;;;;;;;6.97;2.17;;;;;;;16.03;38.28;100106.88;5271291;33;34890;-83
2023/03/13 14:51:16;;;;;;;4.87;2.53;;;;;;;15.90;38.67;100128.69;5265647;33;33826;-83
2023/03/13 14:54:35;;;;;;;8.48;2.50;;;;;;;15.81;39.21;100106.38;5270199;33;32643;-83
2023/03/13 14:57:57;;;;;;;3.67;2.50;;;;;;;15.75;39.64;100109.16;5268763;33;33666;-83
2023/03/13 15:01:22;;;;;;;2.85;2.50;;;;;;;15.98;39.25;100109.41;5284152;33;165421;-84
2023/03/13 15:04:58;;;;;;;6.97;2.60;;;;;;;15.82;39.87;100099.94;5272115;33;33901;-83
2023/03/13 15:08:01;;;;;;;3.62;1.80;;;;;;;15.96;39.58;100100.66;5275365;33;34022;-84
2023/03/13 15:11:25;;;;;;;3.65;2.05;;;;;;;15.88;39.89;100100.91;5260175;33;33754;-85
2023/03/13 15:14:41;;;;;;;3.33;2.10;;;;;;;15.80;39.79;100084.91;5273201;33;33861;-85
2023/03/13 15:17:44;;;;;;;4.82;2.00;;;;;;;15.84;39.94;100094.25;5272345;33;34347;-85
2023/03/13 15:21:21;;;;;;;4.32;2.37;;;;;;;15.78;40.51;100082.41;5266471;33;34407;-85
2023/03/13 15:24:24;;;;;;;5.18;2.53;;;;;;;15.79;41.32;100077.78;5261383;33;35048;-85
2023/03/13 15:27:27;;;;;;;2.35;2.12;;;;;;;15.77;41.11;100064.47;5284795;33;34598;-85
2023/03/13 15:30:30;;;;;;;4.03;1.83;;;;;;;15.69;41.12;100059.28;5288210;33;35356;-85
2023/03/13 15:33:33;;;;;;;5.65;2.40;;;;;;;15.59;40.92;100050.75;5277781;33;35355;-87
2023/03/13 15:36:40;;;;;;;5.87;2.20;;;;;;;15.31;41.89;100053.84;5288038;33;35464;-86
2023/03/13 15:39:55;;;;;;;7.12;1.87;;;;;;;15.16;42.66;100048.72;5278831;33;35431;-91
2023/03/13 15:47:04;;;;;;;3.62;1.90;;;;;;;14.82;42.98;100044.47;5302696;33;34964;-87
2023/03/13 15:50:17;;;;;;;2.97;1.90;;;;;;;14.76;42.91;100039.91;5287459;33;37528;-86
2023/03/13 15:53:43;;;;;;;3.28;2.15;;;;;;;14.62;43.55;100036.41;5290613;33;33756;-86
2023/03/13 15:56:59;;;;;;;6.68;2.00;;;;;;;14.41;43.62;100032.03;5282306;33;33973;-87
2023/03/13 16:00:05;;;;;;;4.05;2.25;;;;;;;14.27;44.01;100021.25;5302996;33;35463;-86
2023/03/13 16:03:23;;;;;;;3.37;2.00;;;;;;;14.19;44.05;100029.59;5283518;33;35364;-86
2023/03/13 16:06:32;;;;;;;3.03;1.95;;;;;;;14.14;44.51;100042.09;5288181;33;34705;-86
2023/03/13 16:09:35;;;;;;;3.03;2.20;;;;;;;14.02;44.87;100037.28;5261695;33;34655;-86
2023/03/13 16:12:39;;;;;;;2.20;1.92;;;;;;;13.94;45.26;100036.66;5268965;33;35253;-89
2023/03/13 16:15:49;;;;;;;3.55;1.80;;;;;;;13.89;45.55;100028.34;5271585;33;35355;-89
2023/03/13 16:18:52;;;;;;;5.10;2.17;;;;;;;13.78;46.41;100025.22;5257474;33;34189;-87
2023/03/13 16:21:55;;;;;;;3.15;2.05;;;;;;;13.75;46.14;100028.34;5235622;33;33489;-87
2023/03/13 16:24:58;;;;;;;5.53;2.20;;;;;;;13.68;46.49;100030.19;5258093;33;34445;-87
2023/03/13 16:28:01;;;;;;;5.15;2.10;;;;;;;13.59;47.38;100024.16;5257223;33;34230;-86
2023/03/13 16:31:04;;;;;;;6.85;2.00;;;;;;;13.62;47.32;100020.22;5275089;33;33075;-87
2023/03/13 16:34:08;;;;;;;3.95;2.28;;;;;;;13.50;48.22;100022.69;5260088;33;33826;-86
2023/03/13 16:37:16;;;;;;;3.47;2.17;;;;;;;13.48;48.27;100032.03;5257314;33;34453;-86
2023/03/13 16:40:25;;;;;;;5.82;2.22;;;;;;;13.38;49.51;100027.03;5260985;33;34828;-86
2023/03/13 16:43:27;;;;;;;3.30;2.17;;;;;;;13.32;49.72;100023.28;5278126;33;34973;-86
2023/03/13 16:46:39;;;;;;;5.90;2.22;;;;;;;13.15;50.40;100027.34;5275285;33;33999;-87
2023/03/13 16:49:42;;;;;;;2.33;1.98;;;;;;;13.10;49.96;100025.28;5281989;33;33350;-86
2023/03/13 16:52:49;;;;;;;2.72;2.53;;;;;;;13.10;49.97;100024.41;5248313;33;35406;-86
2023/03/13 16:55:53;;;;;;;3.35;2.15;;;;;;;13.07;49.88;100022.97;5272802;33;34230;-87
2023/03/13 16:58:57;;;;;;;2.78;2.10;;;;;;;12.99;50.84;100025.88;5265212;33;35423;-86
